createdAt,value
2023-02-14T00:03:43.614Z,24.02
2023-02-14T00:08:45.549Z,21.52
2023-02-14T00:14:09.198Z,22.50
2023-02-14T00:19:15.347Z,22.60
2023-02-14T00:24:24.909Z,22.52
2023-02-14T00:29:31.531Z,22.67
2023-02-14T00:34:40.375Z,24.20
2023-02-14T00:39:50.381Z,23.85
2023-02-14T00:44:51.938Z,24.42
2023-02-14T00:49:55.095Z,25.65
2023-02-14T00:55:05.350Z,24.92
2023-02-14T01:00:08.583Z,25.27
2023-02-14T01:05:10.242Z,25.45
2023-02-14T01:10:12.263Z,24.48
2023-02-14T01:15:14.843Z,25.45
2023-02-14T01:20:16.505Z,26.35
2023-02-14T01:25:18.452Z,27.08
2023-02-14T01:30:21.726Z,25.27
2023-02-14T01:35:25.799Z,24.73
2023-02-14T01:40:34.920Z,24.15
2023-02-14T01:45:40.298Z,23.85
2023-02-14T01:50:46.573Z,23.45
2023-02-14T01:56:05.008Z,24.23
2023-02-14T02:01:06.783Z,24.98
2023-02-14T02:06:13.944Z,24.17
2023-02-14T02:11:15.461Z,24.98
2023-02-14T02:16:23.107Z,25.00
2023-02-14T02:21:48.300Z,23.85
2023-02-14T02:27:30.626Z,24.02
2023-02-14T02:33:07.392Z,23.50
2023-02-14T02:38:45.021Z,23.00
2023-02-14T02:43:54.079Z,24.10
2023-02-14T02:49:43.899Z,24.40
2023-02-14T02:54:55.132Z,22.58
2023-02-14T02:59:59.931Z,22.90
2023-02-14T03:05:05.440Z,23.48
2023-02-14T03:10:38.137Z,22.65
2023-02-14T03:15:54.011Z,22.58
2023-02-14T03:21:26.947Z,21.75
2023-02-14T03:26:39.653Z,20.38
2023-02-14T03:32:11.467Z,22.33
2023-02-14T03:37:21.309Z,21.50
2023-02-14T03:42:28.476Z,21.15
2023-02-14T03:47:36.338Z,22.10
2023-02-14T03:52:49.769Z,20.13
2023-02-14T03:58:18.645Z,21.30
2023-02-14T04:03:23.594Z,20.15
2023-02-14T04:08:33.565Z,20.70
2023-02-14T04:13:37.176Z,22.08
2023-02-14T04:18:57.416Z,20.58
2023-02-14T04:24:06.530Z,21.13
2023-02-14T04:29:10.429Z,21.38
2023-02-14T04:34:11.944Z,22.23
2023-02-14T04:39:25.495Z,23.63
2023-02-14T04:44:27.105Z,24.73
2023-02-14T04:49:28.626Z,25.08
2023-02-14T04:54:38.078Z,23.92
2023-02-14T04:59:42.348Z,20.93
2023-02-14T05:04:44.730Z,21.85
2023-02-14T05:09:49.056Z,21.85
2023-02-14T05:14:58.670Z,22.20
2023-02-14T05:20:00.160Z,23.58
2023-02-14T05:25:01.921Z,22.02
2023-02-14T05:30:03.817Z,23.55
2023-02-14T05:35:08.229Z,24.23
2023-02-14T05:40:13.282Z,24.63
2023-02-14T05:45:15.093Z,22.58
2023-02-14T05:50:17.667Z,22.38
2023-02-14T05:55:22.108Z,23.73
2023-02-14T06:00:27.236Z,22.17
2023-02-14T06:05:28.763Z,21.95
2023-02-14T06:10:32.601Z,22.20
2023-02-14T06:15:41.492Z,23.20
2023-02-14T06:20:48.481Z,22.30
2023-02-14T06:25:50.024Z,22.75
2023-02-14T06:30:51.765Z,21.80
2023-02-14T06:35:59.526Z,20.33
2023-02-14T06:41:10.614Z,19.83
2023-02-14T06:46:16.434Z,21.13
2023-02-14T06:51:18.084Z,21.40
2023-02-14T06:56:19.644Z,20.33
2023-02-14T07:01:21.186Z,21.27
2023-02-14T07:06:25.411Z,23.92
2023-02-14T07:11:29.555Z,23.67
2023-02-14T07:16:36.462Z,23.65
2023-02-14T07:21:37.963Z,24.08
2023-02-14T07:26:39.431Z,26.05
2023-02-14T07:31:44.103Z,23.85
2023-02-14T07:36:45.955Z,24.35
2023-02-14T07:41:49.838Z,22.55
2023-02-14T07:46:58.945Z,24.65
2023-02-14T07:52:04.655Z,25.52
2023-02-14T07:57:06.276Z,23.55
2023-02-14T08:02:12.548Z,21.30
2023-02-14T08:07:19.406Z,22.40
2023-02-14T08:12:42.022Z,21.85
2023-02-14T08:17:46.044Z,22.10
2023-02-14T08:22:47.667Z,26.00
2023-02-14T08:27:51.667Z,26.35
2023-02-14T08:32:53.649Z,21.95
2023-02-14T08:37:55.231Z,23.00
2023-02-14T08:43:01.635Z,21.65
2023-02-14T08:48:12.438Z,22.65
2023-02-14T08:53:16.377Z,22.23
2023-02-14T08:58:20.486Z,27.55
2023-02-14T09:03:26.393Z,23.13
2023-02-14T09:08:38.872Z,23.25
2023-02-14T09:13:41.977Z,23.83
2023-02-14T09:18:44.502Z,21.63
2023-02-14T09:23:48.621Z,20.23
2023-02-14T09:28:52.606Z,21.25
2023-02-14T09:33:56.440Z,18.58
2023-02-14T09:39:01.025Z,17.92
2023-02-14T09:44:19.205Z,17.60
2023-02-14T09:54:31.540Z,21.30
2023-02-14T09:59:42.574Z,18.00
2023-02-14T10:05:14.501Z,17.65
2023-02-14T10:10:45.700Z,15.93
2023-02-14T10:16:00.152Z,15.88
2023-02-14T10:21:07.940Z,15.30
2023-02-14T10:26:16.062Z,15.70
2023-02-14T10:31:43.200Z,16.13
2023-02-14T10:37:03.076Z,16.48
2023-02-14T10:42:19.060Z,14.93
2023-02-14T10:47:34.302Z,14.45
2023-02-14T10:52:51.664Z,14.93
2023-02-14T10:57:56.437Z,15.23
2023-02-14T11:03:07.260Z,13.05
2023-02-14T11:08:22.140Z,13.93
2023-02-14T11:13:43.138Z,14.68
2023-02-14T11:19:12.093Z,14.43
2023-02-14T11:24:19.442Z,15.82
2023-02-14T11:29:27.911Z,16.17
2023-02-14T11:34:40.057Z,13.45
2023-02-14T11:39:43.185Z,15.07
2023-02-14T11:44:56.501Z,15.18
2023-02-14T11:50:01.020Z,15.70
2023-02-14T11:55:06.069Z,14.55
2023-02-14T12:00:31.226Z,14.35
2023-02-14T12:05:46.864Z,15.38
2023-02-14T12:11:05.248Z,15.38
2023-02-14T12:16:23.971Z,15.20
2023-02-14T12:21:50.760Z,14.52
2023-02-14T12:27:23.355Z,13.73
2023-02-14T12:32:29.948Z,13.35
2023-02-14T12:37:40.844Z,14.48
2023-02-14T12:43:12.265Z,13.57
2023-02-14T12:48:19.891Z,12.20
2023-02-14T12:53:37.452Z,12.65
2023-02-14T12:58:50.642Z,12.90
2023-02-14T13:04:19.741Z,13.45
2023-02-14T13:09:27.658Z,14.73
2023-02-14T13:14:53.748Z,13.30
2023-02-14T13:25:36.045Z,14.13
2023-02-14T13:30:43.027Z,13.50
2023-02-14T13:35:58.257Z,13.65
2023-02-14T13:41:05.117Z,13.52
2023-02-14T13:46:09.151Z,13.45
2023-02-14T13:51:13.643Z,13.77
2023-02-14T13:56:16.400Z,13.52
2023-02-14T14:01:36.193Z,13.93
2023-02-14T14:07:04.788Z,12.70
2023-02-14T14:12:37.230Z,13.93
2023-02-14T14:17:47.524Z,12.68
2023-02-14T14:22:56.766Z,13.27
2023-02-14T14:27:59.966Z,13.18
2023-02-14T14:33:31.902Z,13.32
2023-02-14T14:38:46.824Z,13.68
2023-02-14T14:43:51.073Z,13.05
2023-02-14T14:48:55.161Z,12.82
2023-02-14T14:54:18.286Z,12.30
2023-02-14T14:59:42.344Z,13.23
2023-02-14T15:04:46.164Z,12.23
2023-02-14T15:09:49.051Z,11.80
2023-02-14T15:15:01.939Z,12.75
2023-02-14T15:20:22.248Z,13.52
2023-02-14T15:25:33.024Z,13.25
2023-02-14T15:30:41.487Z,13.63
2023-02-14T15:35:46.578Z,13.93
2023-02-14T15:40:52.775Z,15.27
2023-02-14T15:46:03.004Z,15.27
2023-02-14T15:51:08.763Z,14.68
2023-02-14T15:56:33.668Z,14.27
2023-02-14T16:01:37.574Z,13.93
2023-02-14T16:06:48.070Z,13.82
2023-02-14T16:11:54.662Z,14.82
2023-02-14T16:17:02.417Z,14.57
2023-02-14T16:22:09.133Z,15.27
2023-02-14T16:27:13.704Z,15.02
2023-02-14T16:32:26.436Z,16.33
2023-02-14T16:37:31.549Z,14.32
2023-02-14T16:42:33.175Z,14.60
2023-02-14T16:47:34.709Z,15.13
2023-02-14T16:52:36.436Z,14.60
2023-02-14T16:57:42.965Z,14.82
2023-02-14T17:02:45.311Z,15.07
2023-02-14T17:07:47.369Z,14.52
2023-02-14T17:12:53.870Z,15.02
2023-02-14T17:18:02.623Z,14.32
2023-02-14T17:23:07.687Z,16.45
2023-02-14T17:28:10.873Z,17.65
2023-02-14T17:33:14.455Z,15.27
2023-02-14T17:38:16.013Z,16.02
2023-02-14T17:43:24.025Z,17.45
2023-02-14T17:48:27.924Z,19.45
2023-02-14T17:53:29.398Z,18.30
2023-02-14T17:58:33.874Z,19.08
2023-02-14T18:03:42.255Z,17.73
2023-02-14T18:08:48.213Z,19.88
2023-02-14T18:14:03.058Z,16.73
2023-02-14T18:19:07.211Z,18.23
2023-02-14T18:24:12.389Z,21.15
2023-02-14T18:29:16.111Z,15.60
2023-02-14T18:34:20.131Z,19.50
2023-02-14T18:39:26.424Z,18.08
2023-02-14T18:44:29.018Z,17.15
2023-02-14T18:49:33.168Z,16.98
2023-02-14T18:54:36.962Z,19.02
2023-02-14T18:59:43.519Z,19.27
2023-02-14T19:04:50.040Z,26.50
2023-02-14T19:09:53.940Z,19.52
2023-02-14T19:14:57.730Z,16.70
2023-02-14T19:20:00.923Z,18.42
2023-02-14T19:25:05.103Z,16.83
2023-02-14T19:30:08.433Z,17.38
2023-02-14T19:35:10.112Z,17.08
2023-02-14T19:40:15.103Z,16.17
2023-02-14T19:45:18.979Z,16.67
2023-02-14T19:50:23.534Z,16.05
2023-02-14T19:55:27.919Z,15.25
2023-02-14T20:00:31.893Z,14.93
2023-02-14T20:05:36.762Z,14.35
2023-02-14T20:10:40.598Z,13.77
2023-02-14T20:15:42.251Z,15.90
2023-02-14T20:21:02.819Z,16.08
2023-02-14T20:26:11.731Z,14.02
2023-02-14T20:31:15.457Z,12.10
2023-02-14T20:36:17.600Z,12.80
2023-02-14T20:41:22.655Z,13.40
2023-02-14T20:46:26.666Z,12.65
2023-02-14T20:51:28.766Z,13.10
2023-02-14T20:56:30.857Z,12.57
2023-02-14T21:01:32.694Z,13.13
2023-02-14T21:06:35.611Z,13.15
2023-02-14T21:11:37.176Z,14.52
2023-02-14T21:16:38.763Z,12.20
2023-02-14T21:21:40.802Z,13.40
2023-02-14T21:26:43.139Z,12.88
2023-02-14T21:31:44.938Z,13.00
2023-02-14T21:36:46.595Z,13.70
2023-02-14T21:41:48.270Z,14.43
2023-02-14T21:46:49.839Z,13.07
2023-02-14T21:51:51.548Z,13.85
2023-02-14T21:56:53.250Z,15.38
2023-02-14T22:01:54.875Z,12.85
2023-02-14T22:06:57.087Z,12.82
2023-02-14T22:11:58.616Z,13.18
2023-02-14T22:17:00.189Z,13.27
2023-02-14T22:22:02.014Z,12.00
2023-02-14T22:27:03.726Z,12.32
2023-02-14T22:32:05.459Z,12.27
2023-02-14T22:37:07.296Z,12.75
2023-02-14T22:42:09.960Z,11.55
2023-02-14T22:47:11.530Z,10.82
2023-02-14T22:52:13.066Z,11.30
2023-02-14T22:57:14.629Z,10.00
2023-02-14T23:02:16.138Z,10.57
2023-02-14T23:07:17.820Z,10.48
2023-02-14T23:12:37.964Z,9.55
2023-02-14T23:17:58.504Z,10.48
2023-02-14T23:23:00.054Z,11.00
2023-02-14T23:28:01.793Z,10.35
2023-02-14T23:33:03.578Z,10.25
2023-02-14T23:38:05.220Z,10.90
2023-02-14T23:43:06.748Z,10.48
2023-02-14T23:48:08.311Z,11.43
2023-02-14T23:53:09.906Z,12.20
2023-02-14T23:58:11.525Z,12.10
